sensor_id;sensor_type;location;lat;lon;timestamp;P1;durP1;ratioP1;P2;durP2;ratioP2
50773;SDS011;36745;48.544;8.918;2023-04-07T00:00:10;12.52;;;10.18;;
50773;SDS011;36745;48.544;8.918;2023-04-07T00:03:30;15.98;;;10.93;;
50773;SDS011;36745;48.544;8.918;2023-04-07T00:06:50;14.88;;;10.48;;
50773;SDS011;36745;48.544;8.918;2023-04-07T00:10:10;14.23;;;10.05;;
50773;SDS011;36745;48.544;8.918;2023-04-07T00:13:30;14.20;;;9.70;;
50773;SDS011;36745;48.544;8.918;2023-04-07T00:16:50;15.07;;;10.00;;
50773;SDS011;36745;48.544;8.918;2023-04-07T00:20:10;13.43;;;9.82;;
50773;SDS011;36745;48.544;8.918;2023-04-07T00:23:31;14.63;;;10.10;;
50773;SDS011;36745;48.544;8.918;2023-04-07T00:26:50;13.13;;;10.20;;
50773;SDS011;36745;48.544;8.918;2023-04-07T00:30:10;13.88;;;9.98;;
50773;SDS011;36745;48.544;8.918;2023-04-07T00:33:31;13.98;;;10.43;;
50773;SDS011;36745;48.544;8.918;2023-04-07T00:36:50;16.38;;;10.50;;
50773;SDS011;36745;48.544;8.918;2023-04-07T00:40:10;16.05;;;11.10;;
50773;SDS011;36745;48.544;8.918;2023-04-07T00:43:30;15.75;;;10.95;;
50773;SDS011;36745;48.544;8.918;2023-04-07T00:46:50;15.40;;;11.40;;
50773;SDS011;36745;48.544;8.918;2023-04-07T00:50:09;13.02;;;9.98;;
50773;SDS011;36745;48.544;8.918;2023-04-07T00:53:29;13.93;;;10.18;;
50773;SDS011;36745;48.544;8.918;2023-04-07T00:56:49;13.18;;;10.15;;
50773;SDS011;36745;48.544;8.918;2023-04-07T01:00:10;16.88;;;11.10;;
50773;SDS011;36745;48.544;8.918;2023-04-07T01:03:32;15.13;;;11.20;;
50773;SDS011;36745;48.544;8.918;2023-04-07T01:07:03;16.83;;;11.02;;
50773;SDS011;36745;48.544;8.918;2023-04-07T01:10:32;17.20;;;11.75;;
50773;SDS011;36745;48.544;8.918;2023-04-07T01:14:00;16.80;;;11.55;;
50773;SDS011;36745;48.544;8.918;2023-04-07T01:17:21;14.75;;;10.75;;
50773;SDS011;36745;48.544;8.918;2023-04-07T01:20:44;10.70;;;7.88;;
50773;SDS011;36745;48.544;8.918;2023-04-07T01:31:21;14.13;;;10.85;;
50773;SDS011;36745;48.544;8.918;2023-04-07T01:34:44;17.98;;;11.60;;
50773;SDS011;36745;48.544;8.918;2023-04-07T01:38:07;18.20;;;11.55;;
50773;SDS011;36745;48.544;8.918;2023-04-07T01:41:27;17.40;;;12.05;;
50773;SDS011;36745;48.544;8.918;2023-04-07T01:44:49;16.80;;;11.60;;
50773;SDS011;36745;48.544;8.918;2023-04-07T01:48:10;16.05;;;11.85;;
50773;SDS011;36745;48.544;8.918;2023-04-07T01:51:31;18.13;;;12.45;;
50773;SDS011;36745;48.544;8.918;2023-04-07T01:54:52;15.35;;;11.93;;
50773;SDS011;36745;48.544;8.918;2023-04-07T01:58:13;17.20;;;12.30;;
50773;SDS011;36745;48.544;8.918;2023-04-07T02:01:32;16.92;;;11.35;;
50773;SDS011;36745;48.544;8.918;2023-04-07T02:05:03;16.67;;;12.50;;
50773;SDS011;36745;48.544;8.918;2023-04-07T02:08:27;15.73;;;12.38;;
50773;SDS011;36745;48.544;8.918;2023-04-07T02:11:50;18.40;;;12.32;;
50773;SDS011;36745;48.544;8.918;2023-04-07T02:15:12;16.33;;;12.10;;
50773;SDS011;36745;48.544;8.918;2023-04-07T02:18:34;18.80;;;12.23;;
50773;SDS011;36745;48.544;8.918;2023-04-07T02:21:56;18.00;;;12.52;;
50773;SDS011;36745;48.544;8.918;2023-04-07T02:25:20;17.00;;;12.82;;
50773;SDS011;36745;48.544;8.918;2023-04-07T02:28:44;15.75;;;12.60;;
50773;SDS011;36745;48.544;8.918;2023-04-07T02:32:04;18.98;;;12.30;;
50773;SDS011;36745;48.544;8.918;2023-04-07T02:35:24;18.85;;;13.25;;
50773;SDS011;36745;48.544;8.918;2023-04-07T02:38:44;21.13;;;12.68;;
50773;SDS011;36745;48.544;8.918;2023-04-07T02:42:04;18.40;;;13.15;;
50773;SDS011;36745;48.544;8.918;2023-04-07T02:45:24;18.00;;;12.48;;
50773;SDS011;36745;48.544;8.918;2023-04-07T02:48:44;17.35;;;12.85;;
50773;SDS011;36745;48.544;8.918;2023-04-07T02:52:03;17.80;;;12.90;;
50773;SDS011;36745;48.544;8.918;2023-04-07T02:55:23;19.05;;;12.85;;
50773;SDS011;36745;48.544;8.918;2023-04-07T02:58:43;16.80;;;12.82;;
50773;SDS011;36745;48.544;8.918;2023-04-07T03:02:02;17.27;;;13.30;;
50773;SDS011;36745;48.544;8.918;2023-04-07T03:05:22;15.65;;;12.02;;
50773;SDS011;36745;48.544;8.918;2023-04-07T03:08:42;18.27;;;13.10;;
50773;SDS011;36745;48.544;8.918;2023-04-07T03:12:09;19.43;;;14.53;;
50773;SDS011;36745;48.544;8.918;2023-04-07T03:15:32;25.08;;;16.20;;
50773;SDS011;36745;48.544;8.918;2023-04-07T03:18:55;17.98;;;13.25;;
50773;SDS011;36745;48.544;8.918;2023-04-07T03:22:14;18.38;;;14.05;;
50773;SDS011;36745;48.544;8.918;2023-04-07T03:25:41;18.73;;;13.13;;
50773;SDS011;36745;48.544;8.918;2023-04-07T03:29:02;19.85;;;15.02;;
50773;SDS011;36745;48.544;8.918;2023-04-07T03:32:22;18.75;;;13.50;;
50773;SDS011;36745;48.544;8.918;2023-04-07T03:35:42;17.38;;;13.32;;
50773;SDS011;36745;48.544;8.918;2023-04-07T03:39:01;21.48;;;15.80;;
50773;SDS011;36745;48.544;8.918;2023-04-07T03:42:21;21.88;;;17.00;;
50773;SDS011;36745;48.544;8.918;2023-04-07T03:45:41;18.70;;;14.63;;
50773;SDS011;36745;48.544;8.918;2023-04-07T03:49:01;21.80;;;14.68;;
50773;SDS011;36745;48.544;8.918;2023-04-07T03:52:21;21.65;;;14.93;;
50773;SDS011;36745;48.544;8.918;2023-04-07T03:55:41;18.67;;;13.73;;
50773;SDS011;36745;48.544;8.918;2023-04-07T03:59:01;21.88;;;14.50;;
50773;SDS011;36745;48.544;8.918;2023-04-07T04:02:21;19.98;;;13.95;;
50773;SDS011;36745;48.544;8.918;2023-04-07T04:05:41;20.80;;;14.55;;
50773;SDS011;36745;48.544;8.918;2023-04-07T04:09:01;22.23;;;14.23;;
50773;SDS011;36745;48.544;8.918;2023-04-07T04:12:21;17.60;;;13.13;;
50773;SDS011;36745;48.544;8.918;2023-04-07T04:15:41;19.02;;;13.25;;
50773;SDS011;36745;48.544;8.918;2023-04-07T04:19:00;19.73;;;13.60;;
50773;SDS011;36745;48.544;8.918;2023-04-07T04:22:20;18.60;;;12.40;;
50773;SDS011;36745;48.544;8.918;2023-04-07T04:25:40;18.77;;;13.15;;
50773;SDS011;36745;48.544;8.918;2023-04-07T04:28:59;19.80;;;13.23;;
50773;SDS011;36745;48.544;8.918;2023-04-07T04:32:20;18.83;;;13.52;;
50773;SDS011;36745;48.544;8.918;2023-04-07T04:35:40;16.23;;;12.35;;
50773;SDS011;36745;48.544;8.918;2023-04-07T04:39:00;22.50;;;13.85;;
50773;SDS011;36745;48.544;8.918;2023-04-07T04:42:20;20.75;;;13.98;;
50773;SDS011;36745;48.544;8.918;2023-04-07T04:45:39;18.50;;;13.38;;
50773;SDS011;36745;48.544;8.918;2023-04-07T04:49:01;19.95;;;13.90;;
50773;SDS011;36745;48.544;8.918;2023-04-07T04:52:20;18.13;;;13.90;;
50773;SDS011;36745;48.544;8.918;2023-04-07T04:55:40;21.50;;;13.48;;
50773;SDS011;36745;48.544;8.918;2023-04-07T04:59:05;21.13;;;13.82;;
50773;SDS011;36745;48.544;8.918;2023-04-07T05:02:24;18.13;;;12.75;;
50773;SDS011;36745;48.544;8.918;2023-04-07T05:05:46;19.30;;;12.93;;
50773;SDS011;36745;48.544;8.918;2023-04-07T05:09:06;18.88;;;13.88;;
50773;SDS011;36745;48.544;8.918;2023-04-07T05:12:26;21.98;;;14.38;;
50773;SDS011;36745;48.544;8.918;2023-04-07T05:15:46;17.10;;;13.35;;
50773;SDS011;36745;48.544;8.918;2023-04-07T05:19:06;20.27;;;13.13;;
50773;SDS011;36745;48.544;8.918;2023-04-07T05:22:26;20.52;;;14.20;;
50773;SDS011;36745;48.544;8.918;2023-04-07T05:25:45;19.42;;;14.20;;
50773;SDS011;36745;48.544;8.918;2023-04-07T05:29:05;20.70;;;13.88;;
50773;SDS011;36745;48.544;8.918;2023-04-07T05:32:26;19.23;;;13.88;;
50773;SDS011;36745;48.544;8.918;2023-04-07T05:35:49;20.70;;;13.90;;
50773;SDS011;36745;48.544;8.918;2023-04-07T05:39:09;24.65;;;16.67;;
50773;SDS011;36745;48.544;8.918;2023-04-07T05:42:29;20.40;;;14.65;;
50773;SDS011;36745;48.544;8.918;2023-04-07T05:45:49;20.65;;;15.00;;
50773;SDS011;36745;48.544;8.918;2023-04-07T05:49:08;22.98;;;16.40;;
50773;SDS011;36745;48.544;8.918;2023-04-07T05:52:28;25.15;;;17.30;;
50773;SDS011;36745;48.544;8.918;2023-04-07T05:55:51;23.20;;;16.80;;
50773;SDS011;36745;48.544;8.918;2023-04-07T05:59:11;24.67;;;16.27;;
50773;SDS011;36745;48.544;8.918;2023-04-07T06:02:30;21.58;;;16.27;;
50773;SDS011;36745;48.544;8.918;2023-04-07T06:05:50;26.08;;;18.00;;
50773;SDS011;36745;48.544;8.918;2023-04-07T06:09:10;24.00;;;17.52;;
50773;SDS011;36745;48.544;8.918;2023-04-07T06:12:30;24.70;;;16.65;;
50773;SDS011;36745;48.544;8.918;2023-04-07T06:15:50;22.08;;;15.75;;
50773;SDS011;36745;48.544;8.918;2023-04-07T06:19:10;22.80;;;17.52;;
50773;SDS011;36745;48.544;8.918;2023-04-07T06:22:29;24.88;;;16.65;;
50773;SDS011;36745;48.544;8.918;2023-04-07T06:25:49;25.08;;;17.95;;
50773;SDS011;36745;48.544;8.918;2023-04-07T06:29:11;22.90;;;16.70;;
50773;SDS011;36745;48.544;8.918;2023-04-07T06:32:31;20.85;;;14.90;;
50773;SDS011;36745;48.544;8.918;2023-04-07T06:35:51;19.05;;;14.02;;
50773;SDS011;36745;48.544;8.918;2023-04-07T06:39:17;20.75;;;14.60;;
50773;SDS011;36745;48.544;8.918;2023-04-07T06:42:37;21.65;;;15.15;;
50773;SDS011;36745;48.544;8.918;2023-04-07T06:45:56;21.98;;;15.20;;
50773;SDS011;36745;48.544;8.918;2023-04-07T06:49:19;20.80;;;14.27;;
50773;SDS011;36745;48.544;8.918;2023-04-07T06:52:40;23.27;;;14.85;;
50773;SDS011;36745;48.544;8.918;2023-04-07T06:59:27;18.38;;;13.68;;
50773;SDS011;36745;48.544;8.918;2023-04-07T07:02:46;19.27;;;15.07;;
50773;SDS011;36745;48.544;8.918;2023-04-07T07:06:06;19.92;;;13.60;;
50773;SDS011;36745;48.544;8.918;2023-04-07T07:09:26;15.50;;;13.27;;
50773;SDS011;36745;48.544;8.918;2023-04-07T07:12:46;18.20;;;12.68;;
50773;SDS011;36745;48.544;8.918;2023-04-07T07:16:06;15.07;;;11.35;;
50773;SDS011;36745;48.544;8.918;2023-04-07T07:19:26;15.43;;;12.57;;
50773;SDS011;36745;48.544;8.918;2023-04-07T07:22:45;15.93;;;11.93;;
50773;SDS011;36745;48.544;8.918;2023-04-07T07:26:05;27.02;;;22.40;;
50773;SDS011;36745;48.544;8.918;2023-04-07T07:29:25;18.30;;;13.25;;
50773;SDS011;36745;48.544;8.918;2023-04-07T07:32:45;17.38;;;12.32;;
50773;SDS011;36745;48.544;8.918;2023-04-07T07:36:05;15.98;;;12.13;;
50773;SDS011;36745;48.544;8.918;2023-04-07T07:43:24;16.15;;;12.05;;
50773;SDS011;36745;48.544;8.918;2023-04-07T07:46:44;16.10;;;12.30;;
50773;SDS011;36745;48.544;8.918;2023-04-07T07:50:03;14.25;;;11.85;;
50773;SDS011;36745;48.544;8.918;2023-04-07T07:53:23;14.73;;;11.93;;
50773;SDS011;36745;48.544;8.918;2023-04-07T07:56:43;17.42;;;11.73;;
50773;SDS011;36745;48.544;8.918;2023-04-07T08:00:03;14.15;;;11.82;;
50773;SDS011;36745;48.544;8.918;2023-04-07T08:03:23;15.55;;;10.35;;
50773;SDS011;36745;48.544;8.918;2023-04-07T08:06:43;14.40;;;11.15;;
50773;SDS011;36745;48.544;8.918;2023-04-07T08:10:03;14.52;;;10.95;;
50773;SDS011;36745;48.544;8.918;2023-04-07T08:13:24;17.88;;;11.93;;
50773;SDS011;36745;48.544;8.918;2023-04-07T08:16:43;17.75;;;13.00;;
50773;SDS011;36745;48.544;8.918;2023-04-07T08:20:04;17.48;;;11.38;;
50773;SDS011;36745;48.544;8.918;2023-04-07T08:23:24;12.70;;;10.23;;
50773;SDS011;36745;48.544;8.918;2023-04-07T08:26:44;12.77;;;10.18;;
50773;SDS011;36745;48.544;8.918;2023-04-07T08:30:04;16.67;;;9.63;;
50773;SDS011;36745;48.544;8.918;2023-04-07T08:33:27;10.47;;;7.87;;
50773;SDS011;36745;48.544;8.918;2023-04-07T08:36:48;10.05;;;8.18;;
50773;SDS011;36745;48.544;8.918;2023-04-07T08:40:07;10.38;;;8.00;;
50773;SDS011;36745;48.544;8.918;2023-04-07T08:43:28;12.60;;;8.35;;
50773;SDS011;36745;48.544;8.918;2023-04-07T08:46:48;9.18;;;6.85;;
50773;SDS011;36745;48.544;8.918;2023-04-07T08:50:10;8.30;;;7.05;;
50773;SDS011;36745;48.544;8.918;2023-04-07T08:53:39;17.02;;;8.65;;
50773;SDS011;36745;48.544;8.918;2023-04-07T08:57:02;10.98;;;6.70;;
50773;SDS011;36745;48.544;8.918;2023-04-07T09:00:22;10.40;;;7.57;;
50773;SDS011;36745;48.544;8.918;2023-04-07T09:03:43;11.38;;;7.05;;
50773;SDS011;36745;48.544;8.918;2023-04-07T09:07:03;9.25;;;5.95;;
50773;SDS011;36745;48.544;8.918;2023-04-07T09:10:23;7.82;;;5.97;;
50773;SDS011;36745;48.544;8.918;2023-04-07T09:13:43;8.77;;;6.28;;
50773;SDS011;36745;48.544;8.918;2023-04-07T09:17:03;8.02;;;6.65;;
50773;SDS011;36745;48.544;8.918;2023-04-07T09:20:23;10.02;;;6.47;;
50773;SDS011;36745;48.544;8.918;2023-04-07T09:23:43;8.27;;;6.53;;
50773;SDS011;36745;48.544;8.918;2023-04-07T09:27:13;12.57;;;8.25;;
50773;SDS011;36745;48.544;8.918;2023-04-07T09:30:36;10.82;;;6.75;;
50773;SDS011;36745;48.544;8.918;2023-04-07T09:33:55;10.00;;;6.90;;
50773;SDS011;36745;48.544;8.918;2023-04-07T09:37:20;11.02;;;6.97;;
50773;SDS011;36745;48.544;8.918;2023-04-07T09:40:41;8.93;;;6.00;;
50773;SDS011;36745;48.544;8.918;2023-04-07T09:44:00;8.65;;;5.40;;
50773;SDS011;36745;48.544;8.918;2023-04-07T09:47:25;7.10;;;4.95;;
50773;SDS011;36745;48.544;8.918;2023-04-07T09:50:47;9.02;;;5.15;;
50773;SDS011;36745;48.544;8.918;2023-04-07T09:54:10;13.00;;;4.67;;
50773;SDS011;36745;48.544;8.918;2023-04-07T09:57:30;7.88;;;3.85;;
50773;SDS011;36745;48.544;8.918;2023-04-07T10:00:49;5.45;;;3.88;;
50773;SDS011;36745;48.544;8.918;2023-04-07T10:04:09;6.20;;;3.97;;
50773;SDS011;36745;48.544;8.918;2023-04-07T10:07:30;7.22;;;4.07;;
50773;SDS011;36745;48.544;8.918;2023-04-07T10:10:49;7.10;;;4.00;;
50773;SDS011;36745;48.544;8.918;2023-04-07T10:14:10;6.10;;;4.07;;
50773;SDS011;36745;48.544;8.918;2023-04-07T10:17:30;4.63;;;2.80;;
50773;SDS011;36745;48.544;8.918;2023-04-07T10:20:52;5.05;;;2.70;;
50773;SDS011;36745;48.544;8.918;2023-04-07T10:27:55;4.05;;;2.75;;
50773;SDS011;36745;48.544;8.918;2023-04-07T10:31:19;6.13;;;3.25;;
50773;SDS011;36745;48.544;8.918;2023-04-07T10:38:12;8.13;;;3.25;;
50773;SDS011;36745;48.544;8.918;2023-04-07T10:41:33;6.45;;;3.00;;
50773;SDS011;36745;48.544;8.918;2023-04-07T10:44:54;6.03;;;3.00;;
50773;SDS011;36745;48.544;8.918;2023-04-07T10:48:15;4.65;;;3.35;;
50773;SDS011;36745;48.544;8.918;2023-04-07T10:51:36;7.32;;;4.40;;
50773;SDS011;36745;48.544;8.918;2023-04-07T10:58:47;3.35;;;2.08;;
50773;SDS011;36745;48.544;8.918;2023-04-07T11:02:33;2.80;;;1.60;;
50773;SDS011;36745;48.544;8.918;2023-04-07T11:06:06;2.42;;;1.58;;
50773;SDS011;36745;48.544;8.918;2023-04-07T11:09:27;2.53;;;1.20;;
50773;SDS011;36745;48.544;8.918;2023-04-07T11:12:57;2.10;;;1.25;;
50773;SDS011;36745;48.544;8.918;2023-04-07T11:16:18;2.85;;;1.70;;
50773;SDS011;36745;48.544;8.918;2023-04-07T11:19:51;3.28;;;1.38;;
50773;SDS011;36745;48.544;8.918;2023-04-07T11:23:15;5.25;;;1.38;;
50773;SDS011;36745;48.544;8.918;2023-04-07T11:26:40;2.55;;;1.48;;
50773;SDS011;36745;48.544;8.918;2023-04-07T11:30:00;2.67;;;1.10;;
50773;SDS011;36745;48.544;8.918;2023-04-07T11:33:24;2.38;;;1.10;;
50773;SDS011;36745;48.544;8.918;2023-04-07T11:36:49;3.30;;;1.33;;
50773;SDS011;36745;48.544;8.918;2023-04-07T11:40:09;2.60;;;1.38;;
50773;SDS011;36745;48.544;8.918;2023-04-07T11:43:29;3.08;;;1.35;;
50773;SDS011;36745;48.544;8.918;2023-04-07T11:46:56;3.90;;;1.40;;
50773;SDS011;36745;48.544;8.918;2023-04-07T11:50:16;2.65;;;1.23;;
50773;SDS011;36745;48.544;8.918;2023-04-07T11:53:56;3.40;;;1.65;;
50773;SDS011;36745;48.544;8.918;2023-04-07T11:57:25;2.67;;;2.13;;
50773;SDS011;36745;48.544;8.918;2023-04-07T12:00:56;1.77;;;1.20;;
50773;SDS011;36745;48.544;8.918;2023-04-07T12:04:17;1.05;;;0.95;;
50773;SDS011;36745;48.544;8.918;2023-04-07T12:07:37;3.35;;;1.00;;
50773;SDS011;36745;48.544;8.918;2023-04-07T12:11:02;2.10;;;1.30;;
50773;SDS011;36745;48.544;8.918;2023-04-07T12:14:23;4.13;;;1.95;;
50773;SDS011;36745;48.544;8.918;2023-04-07T12:17:44;3.17;;;2.10;;
50773;SDS011;36745;48.544;8.918;2023-04-07T12:21:07;1.67;;;1.38;;
50773;SDS011;36745;48.544;8.918;2023-04-07T12:24:27;2.10;;;1.13;;
50773;SDS011;36745;48.544;8.918;2023-04-07T12:27:47;1.98;;;1.20;;
50773;SDS011;36745;48.544;8.918;2023-04-07T12:31:06;2.03;;;1.13;;
50773;SDS011;36745;48.544;8.918;2023-04-07T12:34:26;4.05;;;1.35;;
50773;SDS011;36745;48.544;8.918;2023-04-07T12:37:46;2.95;;;1.60;;
50773;SDS011;36745;48.544;8.918;2023-04-07T12:41:06;2.42;;;1.40;;
50773;SDS011;36745;48.544;8.918;2023-04-07T12:44:26;2.58;;;1.38;;
50773;SDS011;36745;48.544;8.918;2023-04-07T12:47:46;4.53;;;2.30;;
50773;SDS011;36745;48.544;8.918;2023-04-07T12:51:06;2.78;;;1.48;;
50773;SDS011;36745;48.544;8.918;2023-04-07T12:54:26;4.30;;;1.95;;
50773;SDS011;36745;48.544;8.918;2023-04-07T12:57:46;3.85;;;1.77;;
50773;SDS011;36745;48.544;8.918;2023-04-07T13:01:06;3.70;;;1.73;;
50773;SDS011;36745;48.544;8.918;2023-04-07T13:04:26;4.10;;;1.98;;
50773;SDS011;36745;48.544;8.918;2023-04-07T13:07:48;3.08;;;1.88;;
50773;SDS011;36745;48.544;8.918;2023-04-07T13:11:08;5.22;;;1.70;;
50773;SDS011;36745;48.544;8.918;2023-04-07T13:14:28;3.30;;;1.65;;
50773;SDS011;36745;48.544;8.918;2023-04-07T13:17:48;4.15;;;1.90;;
50773;SDS011;36745;48.544;8.918;2023-04-07T13:21:08;4.82;;;2.53;;
50773;SDS011;36745;48.544;8.918;2023-04-07T13:24:28;3.65;;;2.00;;
50773;SDS011;36745;48.544;8.918;2023-04-07T13:27:48;5.43;;;1.85;;
50773;SDS011;36745;48.544;8.918;2023-04-07T13:31:08;5.03;;;1.52;;
50773;SDS011;36745;48.544;8.918;2023-04-07T13:34:30;2.97;;;1.65;;
50773;SDS011;36745;48.544;8.918;2023-04-07T13:37:50;4.28;;;1.83;;
50773;SDS011;36745;48.544;8.918;2023-04-07T13:41:09;4.60;;;1.85;;
50773;SDS011;36745;48.544;8.918;2023-04-07T13:44:29;4.03;;;2.10;;
50773;SDS011;36745;48.544;8.918;2023-04-07T13:47:49;4.03;;;1.98;;
50773;SDS011;36745;48.544;8.918;2023-04-07T13:51:09;3.95;;;1.50;;
50773;SDS011;36745;48.544;8.918;2023-04-07T13:54:29;2.80;;;1.42;;
50773;SDS011;36745;48.544;8.918;2023-04-07T13:57:54;3.47;;;1.50;;
50773;SDS011;36745;48.544;8.918;2023-04-07T14:01:46;2.83;;;1.70;;
50773;SDS011;36745;48.544;8.918;2023-04-07T14:05:06;2.33;;;1.70;;
50773;SDS011;36745;48.544;8.918;2023-04-07T14:08:26;1.98;;;1.42;;
50773;SDS011;36745;48.544;8.918;2023-04-07T14:11:46;3.45;;;1.40;;
50773;SDS011;36745;48.544;8.918;2023-04-07T14:15:22;3.05;;;1.95;;
50773;SDS011;36745;48.544;8.918;2023-04-07T14:18:42;4.28;;;2.17;;
50773;SDS011;36745;48.544;8.918;2023-04-07T14:22:03;4.50;;;2.25;;
50773;SDS011;36745;48.544;8.918;2023-04-07T14:25:22;2.78;;;2.03;;
50773;SDS011;36745;48.544;8.918;2023-04-07T14:28:42;5.10;;;1.98;;
50773;SDS011;36745;48.544;8.918;2023-04-07T14:32:02;5.80;;;2.25;;
50773;SDS011;36745;48.544;8.918;2023-04-07T14:35:22;2.50;;;1.50;;
50773;SDS011;36745;48.544;8.918;2023-04-07T14:38:42;4.38;;;1.50;;
50773;SDS011;36745;48.544;8.918;2023-04-07T14:42:02;2.55;;;1.42;;
50773;SDS011;36745;48.544;8.918;2023-04-07T14:45:22;2.65;;;1.52;;
50773;SDS011;36745;48.544;8.918;2023-04-07T14:48:46;2.97;;;1.50;;
50773;SDS011;36745;48.544;8.918;2023-04-07T14:52:12;3.50;;;1.67;;
50773;SDS011;36745;48.544;8.918;2023-04-07T14:55:32;4.97;;;2.15;;
50773;SDS011;36745;48.544;8.918;2023-04-07T14:58:52;5.03;;;2.03;;
50773;SDS011;36745;48.544;8.918;2023-04-07T15:02:12;4.88;;;2.20;;
50773;SDS011;36745;48.544;8.918;2023-04-07T15:05:32;4.32;;;2.10;;
50773;SDS011;36745;48.544;8.918;2023-04-07T15:08:52;4.13;;;2.28;;
50773;SDS011;36745;48.544;8.918;2023-04-07T15:12:12;5.25;;;2.55;;
50773;SDS011;36745;48.544;8.918;2023-04-07T15:15:32;5.55;;;2.47;;
50773;SDS011;36745;48.544;8.918;2023-04-07T15:18:52;6.60;;;2.70;;
50773;SDS011;36745;48.544;8.918;2023-04-07T15:22:12;7.25;;;2.70;;
50773;SDS011;36745;48.544;8.918;2023-04-07T15:25:31;5.10;;;2.40;;
50773;SDS011;36745;48.544;8.918;2023-04-07T15:28:51;5.97;;;2.42;;
50773;SDS011;36745;48.544;8.918;2023-04-07T15:32:11;9.15;;;2.40;;
50773;SDS011;36745;48.544;8.918;2023-04-07T15:35:31;3.75;;;2.45;;
50773;SDS011;36745;48.544;8.918;2023-04-07T15:38:50;7.35;;;2.78;;
50773;SDS011;36745;48.544;8.918;2023-04-07T15:42:10;4.00;;;2.58;;
50773;SDS011;36745;48.544;8.918;2023-04-07T15:45:31;5.32;;;2.90;;
50773;SDS011;36745;48.544;8.918;2023-04-07T15:48:51;11.63;;;4.35;;
50773;SDS011;36745;48.544;8.918;2023-04-07T15:52:11;7.40;;;3.78;;
50773;SDS011;36745;48.544;8.918;2023-04-07T15:55:32;6.38;;;4.80;;
50773;SDS011;36745;48.544;8.918;2023-04-07T15:58:53;6.78;;;3.08;;
50773;SDS011;36745;48.544;8.918;2023-04-07T16:02:13;6.35;;;3.95;;
50773;SDS011;36745;48.544;8.918;2023-04-07T16:05:33;7.18;;;4.18;;
50773;SDS011;36745;48.544;8.918;2023-04-07T16:08:54;5.97;;;3.38;;
50773;SDS011;36745;48.544;8.918;2023-04-07T16:12:14;5.22;;;2.50;;
50773;SDS011;36745;48.544;8.918;2023-04-07T16:15:34;4.07;;;2.60;;
50773;SDS011;36745;48.544;8.918;2023-04-07T16:18:54;3.45;;;1.95;;
50773;SDS011;36745;48.544;8.918;2023-04-07T16:22:14;6.00;;;2.40;;
50773;SDS011;36745;48.544;8.918;2023-04-07T16:25:34;3.80;;;2.00;;
50773;SDS011;36745;48.544;8.918;2023-04-07T16:28:54;4.10;;;2.45;;
50773;SDS011;36745;48.544;8.918;2023-04-07T16:32:13;11.65;;;4.43;;
50773;SDS011;36745;48.544;8.918;2023-04-07T16:35:33;11.98;;;4.00;;
50773;SDS011;36745;48.544;8.918;2023-04-07T16:38:53;5.55;;;3.53;;
50773;SDS011;36745;48.544;8.918;2023-04-07T16:42:13;6.53;;;4.57;;
50773;SDS011;36745;48.544;8.918;2023-04-07T16:45:33;10.10;;;4.30;;
50773;SDS011;36745;48.544;8.918;2023-04-07T16:48:53;9.00;;;4.85;;
50773;SDS011;36745;48.544;8.918;2023-04-07T16:52:13;7.65;;;5.47;;
50773;SDS011;36745;48.544;8.918;2023-04-07T16:55:36;83.90;;;48.03;;
50773;SDS011;36745;48.544;8.918;2023-04-07T16:58:57;19.13;;;12.15;;
50773;SDS011;36745;48.544;8.918;2023-04-07T17:02:17;9.25;;;7.50;;
50773;SDS011;36745;48.544;8.918;2023-04-07T17:05:36;18.30;;;12.75;;
50773;SDS011;36745;48.544;8.918;2023-04-07T17:08:56;11.55;;;6.40;;
50773;SDS011;36745;48.544;8.918;2023-04-07T17:12:16;12.55;;;9.35;;
50773;SDS011;36745;48.544;8.918;2023-04-07T17:15:36;10.93;;;6.18;;
50773;SDS011;36745;48.544;8.918;2023-04-07T17:18:56;6.45;;;4.43;;
50773;SDS011;36745;48.544;8.918;2023-04-07T17:22:16;9.52;;;4.50;;
50773;SDS011;36745;48.544;8.918;2023-04-07T17:25:36;4.40;;;3.70;;
50773;SDS011;36745;48.544;8.918;2023-04-07T17:28:56;40.42;;;20.77;;
50773;SDS011;36745;48.544;8.918;2023-04-07T17:32:16;14.65;;;8.73;;
50773;SDS011;36745;48.544;8.918;2023-04-07T17:35:36;14.10;;;9.70;;
50773;SDS011;36745;48.544;8.918;2023-04-07T17:38:56;12.15;;;8.73;;
50773;SDS011;36745;48.544;8.918;2023-04-07T17:42:16;9.25;;;6.30;;
50773;SDS011;36745;48.544;8.918;2023-04-07T17:45:35;6.65;;;5.38;;
50773;SDS011;36745;48.544;8.918;2023-04-07T17:48:58;7.97;;;5.83;;
50773;SDS011;36745;48.544;8.918;2023-04-07T17:52:18;6.72;;;4.80;;
50773;SDS011;36745;48.544;8.918;2023-04-07T17:55:38;10.57;;;6.97;;
50773;SDS011;36745;48.544;8.918;2023-04-07T17:58:59;11.77;;;7.28;;
50773;SDS011;36745;48.544;8.918;2023-04-07T18:02:19;9.32;;;6.60;;
50773;SDS011;36745;48.544;8.918;2023-04-07T18:05:45;10.45;;;6.28;;
50773;SDS011;36745;48.544;8.918;2023-04-07T18:09:16;6.22;;;5.15;;
50773;SDS011;36745;48.544;8.918;2023-04-07T18:12:35;8.35;;;6.38;;
50773;SDS011;36745;48.544;8.918;2023-04-07T18:15:55;6.80;;;6.03;;
50773;SDS011;36745;48.544;8.918;2023-04-07T18:19:16;5.18;;;4.68;;
50773;SDS011;36745;48.544;8.918;2023-04-07T18:22:35;4.32;;;3.50;;
50773;SDS011;36745;48.544;8.918;2023-04-07T18:25:55;8.15;;;3.70;;
50773;SDS011;36745;48.544;8.918;2023-04-07T18:29:15;3.80;;;3.40;;
50773;SDS011;36745;48.544;8.918;2023-04-07T18:32:35;4.30;;;3.35;;
50773;SDS011;36745;48.544;8.918;2023-04-07T18:35:55;3.97;;;2.95;;
50773;SDS011;36745;48.544;8.918;2023-04-07T18:39:15;3.65;;;2.95;;
50773;SDS011;36745;48.544;8.918;2023-04-07T18:42:34;4.22;;;3.47;;
50773;SDS011;36745;48.544;8.918;2023-04-07T18:45:54;4.30;;;3.13;;
50773;SDS011;36745;48.544;8.918;2023-04-07T18:49:14;6.22;;;3.60;;
50773;SDS011;36745;48.544;8.918;2023-04-07T18:52:34;3.92;;;3.10;;
50773;SDS011;36745;48.544;8.918;2023-04-07T18:55:54;5.57;;;2.97;;
50773;SDS011;36745;48.544;8.918;2023-04-07T18:59:13;5.10;;;2.90;;
50773;SDS011;36745;48.544;8.918;2023-04-07T19:02:33;5.85;;;3.00;;
50773;SDS011;36745;48.544;8.918;2023-04-07T19:05:53;3.38;;;3.03;;
50773;SDS011;36745;48.544;8.918;2023-04-07T19:09:13;3.17;;;2.83;;
50773;SDS011;36745;48.544;8.918;2023-04-07T19:12:33;4.00;;;3.30;;
50773;SDS011;36745;48.544;8.918;2023-04-07T19:15:53;8.68;;;6.28;;
50773;SDS011;36745;48.544;8.918;2023-04-07T19:19:14;5.95;;;4.75;;
50773;SDS011;36745;48.544;8.918;2023-04-07T19:22:35;4.47;;;3.97;;
50773;SDS011;36745;48.544;8.918;2023-04-07T19:25:55;7.03;;;6.32;;
50773;SDS011;36745;48.544;8.918;2023-04-07T19:29:14;6.13;;;4.90;;
50773;SDS011;36745;48.544;8.918;2023-04-07T19:32:35;5.38;;;4.22;;
50773;SDS011;36745;48.544;8.918;2023-04-07T19:35:55;5.90;;;5.10;;
50773;SDS011;36745;48.544;8.918;2023-04-07T19:39:15;6.85;;;5.55;;
50773;SDS011;36745;48.544;8.918;2023-04-07T19:42:35;5.35;;;4.82;;
50773;SDS011;36745;48.544;8.918;2023-04-07T19:45:55;5.57;;;4.30;;
50773;SDS011;36745;48.544;8.918;2023-04-07T19:49:14;4.32;;;3.92;;
50773;SDS011;36745;48.544;8.918;2023-04-07T19:52:34;4.95;;;4.35;;
50773;SDS011;36745;48.544;8.918;2023-04-07T19:55:54;5.78;;;4.68;;
50773;SDS011;36745;48.544;8.918;2023-04-07T19:59:14;6.85;;;4.70;;
50773;SDS011;36745;48.544;8.918;2023-04-07T20:02:34;4.90;;;4.40;;
50773;SDS011;36745;48.544;8.918;2023-04-07T20:05:54;6.20;;;5.03;;
50773;SDS011;36745;48.544;8.918;2023-04-07T20:09:14;6.90;;;5.18;;
50773;SDS011;36745;48.544;8.918;2023-04-07T20:12:33;5.65;;;4.75;;
50773;SDS011;36745;48.544;8.918;2023-04-07T20:15:53;10.80;;;7.05;;
50773;SDS011;36745;48.544;8.918;2023-04-07T20:19:13;8.88;;;6.78;;